sensor_id;sensor_type;location;lat;lon;timestamp;temperature;humidity
25320;DHT22;13256;49.012;8.610;2023-08-20T16:42:40;33.50;88.30
25320;DHT22;13256;49.012;8.610;2023-08-20T17:24:42;32.40;91.60
25320;DHT22;13256;49.012;8.610;2023-08-20T17:35:54;32.00;91.90
25320;DHT22;13256;49.012;8.610;2023-08-20T17:38:21;32.00;92.20
25320;DHT22;13256;49.012;8.610;2023-08-20T17:41:15;31.90;92.00
25320;DHT22;13256;49.012;8.610;2023-08-20T17:44:13;31.80;91.90
25320;DHT22;13256;49.012;8.610;2023-08-20T17:46:49;31.80;92.10
25320;DHT22;13256;49.012;8.610;2023-08-20T17:49:17;31.70;92.30
25320;DHT22;13256;49.012;8.610;2023-08-20T17:51:49;31.60;92.20
25320;DHT22;13256;49.012;8.610;2023-08-20T17:54:46;31.50;92.60
25320;DHT22;13256;49.012;8.610;2023-08-20T17:57:13;31.30;92.80
25320;DHT22;13256;49.012;8.610;2023-08-20T17:59:43;31.20;93.00
25320;DHT22;13256;49.012;8.610;2023-08-20T18:02:13;31.10;92.80
25320;DHT22;13256;49.012;8.610;2023-08-20T18:04:41;30.90;93.30
25320;DHT22;13256;49.012;8.610;2023-08-20T18:07:13;30.80;93.10
25320;DHT22;13256;49.012;8.610;2023-08-20T18:09:45;30.70;93.10
25320;DHT22;13256;49.012;8.610;2023-08-20T18:12:47;30.70;93.50
25320;DHT22;13256;49.012;8.610;2023-08-20T18:15:15;30.60;93.70
25320;DHT22;13256;49.012;8.610;2023-08-20T18:17:44;30.60;94.10
25320;DHT22;13256;49.012;8.610;2023-08-20T18:20:15;30.60;94.10
25320;DHT22;13256;49.012;8.610;2023-08-20T18:22:42;30.50;93.80
25320;DHT22;13256;49.012;8.610;2023-08-20T18:25:13;30.40;94.20
25320;DHT22;13256;49.012;8.610;2023-08-20T18:27:40;30.40;94.10
25320;DHT22;13256;49.012;8.610;2023-08-20T18:30:37;30.30;94.20
25320;DHT22;13256;49.012;8.610;2023-08-20T18:33:06;30.20;94.40
25320;DHT22;13256;49.012;8.610;2023-08-20T18:35:36;30.10;95.20
25320;DHT22;13256;49.012;8.610;2023-08-20T18:38:06;30.10;95.50
25320;DHT22;13256;49.012;8.610;2023-08-20T18:40:37;30.00;95.60
25320;DHT22;13256;49.012;8.610;2023-08-20T18:43:04;30.00;96.00
25320;DHT22;13256;49.012;8.610;2023-08-20T18:45:32;29.80;96.60
25320;DHT22;13256;49.012;8.610;2023-08-20T18:47:59;29.60;97.20
25320;DHT22;13256;49.012;8.610;2023-08-20T18:50:32;29.20;98.20
25320;DHT22;13256;49.012;8.610;2023-08-20T18:53:05;29.00;99.10
25320;DHT22;13256;49.012;8.610;2023-08-20T18:55:33;28.70;99.80
25320;DHT22;13256;49.012;8.610;2023-08-20T18:58:00;28.50;99.90
25320;DHT22;13256;49.012;8.610;2023-08-20T19:00:30;28.30;99.90
25320;DHT22;13256;49.012;8.610;2023-08-20T19:02:59;28.20;99.90
25320;DHT22;13256;49.012;8.610;2023-08-20T19:05:28;28.00;99.90
25320;DHT22;13256;49.012;8.610;2023-08-20T19:07:56;28.00;99.90
25320;DHT22;13256;49.012;8.610;2023-08-20T19:10:24;27.80;99.90
25320;DHT22;13256;49.012;8.610;2023-08-20T19:12:54;27.70;99.90
25320;DHT22;13256;49.012;8.610;2023-08-20T19:15:25;27.60;99.90
25320;DHT22;13256;49.012;8.610;2023-08-20T19:17:57;27.50;99.90
25320;DHT22;13256;49.012;8.610;2023-08-20T19:20:28;27.50;99.90
25320;DHT22;13256;49.012;8.610;2023-08-20T19:22:56;27.30;99.90
25320;DHT22;13256;49.012;8.610;2023-08-20T19:25:25;27.20;99.90
25320;DHT22;13256;49.012;8.610;2023-08-20T19:27:56;27.10;99.90
25320;DHT22;13256;49.012;8.610;2023-08-20T19:30:25;26.90;99.90
25320;DHT22;13256;49.012;8.610;2023-08-20T19:32:55;26.80;99.90
25320;DHT22;13256;49.012;8.610;2023-08-20T19:35:27;26.80;99.90
25320;DHT22;13256;49.012;8.610;2023-08-20T19:38:04;26.70;99.90
25320;DHT22;13256;49.012;8.610;2023-08-20T19:41:00;26.60;99.90
25320;DHT22;13256;49.012;8.610;2023-08-20T19:43:28;26.60;99.90
25320;DHT22;13256;49.012;8.610;2023-08-20T19:45:54;26.40;99.90
25320;DHT22;13256;49.012;8.610;2023-08-20T19:48:22;26.30;99.90
25320;DHT22;13256;49.012;8.610;2023-08-20T19:50:52;26.30;99.90
25320;DHT22;13256;49.012;8.610;2023-08-20T19:53:20;26.20;99.90
25320;DHT22;13256;49.012;8.610;2023-08-20T19:55:56;26.10;99.90
25320;DHT22;13256;49.012;8.610;2023-08-20T20:10:38;25.70;99.90
25320;DHT22;13256;49.012;8.610;2023-08-20T20:13:05;25.60;99.90
25320;DHT22;13256;49.012;8.610;2023-08-20T20:15:34;25.50;99.90
25320;DHT22;13256;49.012;8.610;2023-08-20T20:18:01;25.50;99.90
25320;DHT22;13256;49.012;8.610;2023-08-20T20:20:56;25.40;99.90
25320;DHT22;13256;49.012;8.610;2023-08-20T20:23:24;25.50;99.90
25320;DHT22;13256;49.012;8.610;2023-08-20T20:44:12;25.20;99.90
25320;DHT22;13256;49.012;8.610;2023-08-20T20:46:38;25.10;99.90
25320;DHT22;13256;49.012;8.610;2023-08-20T20:49:07;25.00;99.90
25320;DHT22;13256;49.012;8.610;2023-08-20T20:51:36;24.90;99.90
25320;DHT22;13256;49.012;8.610;2023-08-20T20:54:30;24.80;99.90
25320;DHT22;13256;49.012;8.610;2023-08-20T20:57:02;24.80;99.90
25320;DHT22;13256;49.012;8.610;2023-08-20T20:59:58;24.80;99.90
25320;DHT22;13256;49.012;8.610;2023-08-20T21:02:26;24.70;99.90
25320;DHT22;13256;49.012;8.610;2023-08-20T21:16:03;24.50;99.90
25320;DHT22;13256;49.012;8.610;2023-08-20T21:18:29;24.40;99.90
25320;DHT22;13256;49.012;8.610;2023-08-20T21:21:09;24.30;99.90
25320;DHT22;13256;49.012;8.610;2023-08-20T21:23:43;24.30;99.90
25320;DHT22;13256;49.012;8.610;2023-08-20T21:26:14;24.20;99.90
25320;DHT22;13256;49.012;8.610;2023-08-20T21:29:09;24.10;99.90
25320;DHT22;13256;49.012;8.610;2023-08-20T21:32:00;24.00;99.90
25320;DHT22;13256;49.012;8.610;2023-08-20T21:34:28;23.90;99.90
25320;DHT22;13256;49.012;8.610;2023-08-20T21:37:20;23.80;99.90
25320;DHT22;13256;49.012;8.610;2023-08-20T21:44:06;23.80;99.90
25320;DHT22;13256;49.012;8.610;2023-08-20T21:57:44;23.70;99.90
25320;DHT22;13256;49.012;8.610;2023-08-20T22:00:27;23.70;99.90
25320;DHT22;13256;49.012;8.610;2023-08-20T22:02:57;23.70;99.90
25320;DHT22;13256;49.012;8.610;2023-08-20T22:08:55;23.70;99.90
25320;DHT22;13256;49.012;8.610;2023-08-20T22:11:28;23.70;99.90
25320;DHT22;13256;49.012;8.610;2023-08-20T22:13:55;23.70;99.90
25320;DHT22;13256;49.012;8.610;2023-08-20T22:16:49;23.60;99.90
25320;DHT22;13256;49.012;8.610;2023-08-20T22:24:02;23.50;99.90
25320;DHT22;13256;49.012;8.610;2023-08-20T22:26:54;23.40;99.90
25320;DHT22;13256;49.012;8.610;2023-08-20T22:29:36;23.30;99.90
25320;DHT22;13256;49.012;8.610;2023-08-20T22:32:30;23.30;99.90
25320;DHT22;13256;49.012;8.610;2023-08-20T22:42:45;23.10;99.90
25320;DHT22;13256;49.012;8.610;2023-08-20T22:45:19;23.00;99.90
25320;DHT22;13256;49.012;8.610;2023-08-20T22:47:48;23.00;99.90
25320;DHT22;13256;49.012;8.610;2023-08-20T22:53:35;22.90;99.90
25320;DHT22;13256;49.012;8.610;2023-08-20T22:59:59;22.90;99.90
25320;DHT22;13256;49.012;8.610;2023-08-20T23:02:26;22.90;99.90
25320;DHT22;13256;49.012;8.610;2023-08-20T23:04:53;22.90;99.90
25320;DHT22;13256;49.012;8.610;2023-08-20T23:07:20;22.90;99.90
25320;DHT22;13256;49.012;8.610;2023-08-20T23:09:49;22.80;99.90
25320;DHT22;13256;49.012;8.610;2023-08-20T23:12:16;22.80;99.90
25320;DHT22;13256;49.012;8.610;2023-08-20T23:14:49;22.80;99.90
25320;DHT22;13256;49.012;8.610;2023-08-20T23:17:19;22.70;99.90
25320;DHT22;13256;49.012;8.610;2023-08-20T23:19:46;22.70;99.90
25320;DHT22;13256;49.012;8.610;2023-08-20T23:22:14;22.60;99.90
25320;DHT22;13256;49.012;8.610;2023-08-20T23:24:47;22.70;99.90
25320;DHT22;13256;49.012;8.610;2023-08-20T23:27:14;22.60;99.90
25320;DHT22;13256;49.012;8.610;2023-08-20T23:29:41;22.60;99.90
25320;DHT22;13256;49.012;8.610;2023-08-20T23:32:08;22.60;99.90
25320;DHT22;13256;49.012;8.610;2023-08-20T23:34:38;22.50;99.90
25320;DHT22;13256;49.012;8.610;2023-08-20T23:37:06;22.50;99.90
25320;DHT22;13256;49.012;8.610;2023-08-20T23:39:38;22.50;99.90
25320;DHT22;13256;49.012;8.610;2023-08-20T23:42:05;22.50;99.90
25320;DHT22;13256;49.012;8.610;2023-08-20T23:44:32;22.40;99.90
25320;DHT22;13256;49.012;8.610;2023-08-20T23:46:59;22.40;99.90
25320;DHT22;13256;49.012;8.610;2023-08-20T23:49:26;22.40;99.90
25320;DHT22;13256;49.012;8.610;2023-08-20T23:59:36;22.30;99.90
